Time;durP1;ratioP1;P1;durP2;ratioP2;P2;SDS_P1;SDS_P2;PMS_P1;PMS_P2;Temp;Humidity;BMP_temperature;BMP_pressure;BME280_temperature;BME280_humidity;BME280_pressure;Samples;Min_cycle;Max_cycle;Signal;HPM_P1;HPM_P2
2021/12/07 00:01:29;;;;;;;7.13;4.72;;;2.30;99.90;;;;;;5072934;28;20016;-91
2021/12/07 00:03:55;;;;;;;11.65;5.40;;;2.30;99.90;;;;;;5055472;28;20072;-87
2021/12/07 00:06:21;;;;;;;9.18;4.75;;;2.40;99.90;;;;;;5056093;28;20488;-90
2021/12/07 00:08:49;;;;;;;10.43;5.00;;;2.50;99.90;;;;;;5057431;28;20446;-88
2021/12/07 00:11:15;;;;;;;9.60;5.38;;;2.50;99.90;;;;;;5055084;28;20021;-86
2021/12/07 00:13:42;;;;;;;8.80;5.32;;;2.50;99.90;;;;;;5047692;28;20031;-84
2021/12/07 00:16:10;;;;;;;7.45;4.90;;;2.50;99.90;;;;;;5073416;28;20032;-84
2021/12/07 00:18:39;;;;;;;12.43;5.25;;;2.60;99.90;;;;;;5055783;28;20112;-84
2021/12/07 00:21:07;;;;;;;13.43;5.32;;;2.70;99.90;;;;;;5055697;28;20035;-85
2021/12/07 00:23:33;;;;;;;8.55;5.25;;;2.70;99.90;;;;;;5056267;28;20037;-85
2021/12/07 00:25:59;;;;;;;14.95;6.13;;;2.70;99.90;;;;;;5056501;28;20024;-85
2021/12/07 00:28:25;;;;;;;8.13;5.00;;;2.80;99.90;;;;;;5074407;28;20029;-85
2021/12/07 00:30:52;;;;;;;7.40;5.28;;;2.80;99.90;;;;;;5071345;28;20036;-85
2021/12/07 00:33:35;;;;;;;10.15;4.97;;;2.80;99.90;;;;;;5056696;28;20026;-86
2021/12/07 00:36:01;;;;;;;10.25;5.15;;;2.90;99.90;;;;;;5074207;28;20024;-85
2021/12/07 00:38:27;;;;;;;10.32;5.95;;;2.90;99.90;;;;;;5050319;28;20576;-85
2021/12/07 00:40:57;;;;;;;8.55;5.53;;;3.00;99.90;;;;;;5056757;28;20115;-85
2021/12/07 00:43:25;;;;;;;11.93;6.25;;;3.00;99.90;;;;;;5056692;28;20460;-85
2021/12/07 00:45:51;;;;;;;;;;;3.10;99.90;;;;;;5074767;28;20021;-86
2021/12/07 00:48:17;;;;;;;9.80;5.88;;;3.10;99.90;;;;;;5074314;28;19904;-85
2021/12/07 00:50:45;;;;;;;8.60;5.40;;;3.10;99.90;;;;;;5073251;28;20095;-85
2021/12/07 00:53:11;;;;;;;;;;;3.10;99.90;;;;;;5056893;28;20394;-83
2021/12/07 00:55:48;;;;;;;8.65;5.90;;;3.20;99.90;;;;;;5054347;28;19908;-85
2021/12/07 00:58:20;;;;;;;10.85;6.13;;;3.20;99.90;;;;;;5073971;28;20035;-85
2021/12/07 01:00:48;;;;;;;11.38;6.90;;;3.30;99.90;;;;;;5074236;28;20530;-84
2021/12/07 01:03:14;;;;;;;12.00;7.22;;;3.30;99.90;;;;;;5074176;28;20051;-85
2021/12/07 01:05:47;;;;;;;13.88;7.38;;;3.30;99.90;;;;;;5056164;28;20044;-85
2021/12/07 01:08:35;;;;;;;12.60;6.85;;;3.20;99.90;;;;;;5036318;28;20481;-85
2021/12/07 01:24:42;;;;;;;14.05;7.70;;;3.20;99.90;;;;;;5061687;28;20036;-86
2021/12/07 01:27:11;;;;;;;11.00;6.18;;;3.20;99.90;;;;;;5057766;28;20393;-86
2021/12/07 01:29:39;;;;;;;11.88;7.50;;;3.20;99.90;;;;;;5065306;28;20388;-85
2021/12/07 01:32:32;;;;;;;14.38;7.82;;;3.20;99.90;;;;;;5066166;28;20481;-87
2021/12/07 01:37:49;;;;;;;21.10;7.95;;;3.20;99.90;;;;;;5077143;28;20025;-84
2021/12/07 01:40:35;;;;;;;15.77;7.10;;;3.20;99.90;;;;;;5077151;28;20028;-86
2021/12/07 02:01:51;;;;;;;19.02;5.38;;;3.60;99.90;;;;;;5068490;28;20511;-87
2021/12/07 02:04:16;;;;;;;9.32;3.67;;;3.60;99.90;;;;;;5058915;28;20103;-86
2021/12/07 02:06:42;;;;;;;9.40;3.33;;;3.70;99.90;;;;;;5059007;28;20496;-87
2021/12/07 02:09:10;;;;;;;7.47;3.30;;;3.80;99.90;;;;;;5057850;28;20173;-84
2021/12/07 02:11:38;;;;;;;21.90;2.70;;;3.80;99.90;;;;;;5076923;28;20032;-86
2021/12/07 02:14:16;;;;;;;14.70;2.70;;;4.00;99.90;;;;;;5058868;28;20025;-87
2021/12/07 02:16:49;;;;;;;9.33;1.90;;;4.20;99.90;;;;;;5052241;28;20033;-86
2021/12/07 02:19:16;;;;;;;18.73;1.92;;;4.30;99.90;;;;;;5057127;28;20029;-86
2021/12/07 02:21:42;;;;;;;15.57;2.50;;;4.40;99.90;;;;;;5040618;28;20029;-88
2021/12/07 02:24:08;;;;;;;8.07;2.30;;;4.50;99.90;;;;;;5077079;28;20028;-86
2021/12/07 02:26:34;;;;;;;18.73;1.63;;;4.60;99.90;;;;;;5076544;28;20029;-86
2021/12/07 02:29:02;;;;;;;10.93;2.47;;;4.70;99.90;;;;;;5068948;28;20025;-86
2021/12/07 02:31:28;;;;;;;;;;;4.80;99.90;;;;;;5058433;28;20523;-87
2021/12/07 02:33:54;;;;;;;13.10;1.38;;;4.90;99.90;;;;;;5056271;28;20003;-88
2021/12/07 02:36:20;;;;;;;15.82;1.90;;;5.00;99.90;;;;;;5058743;28;20056;-88
2021/12/07 02:38:47;;;;;;;7.85;1.10;;;5.00;99.90;;;;;;5059758;28;20484;-89
2021/12/07 02:41:13;;;;;;;1.27;0.80;;;5.00;99.90;;;;;;5056086;28;20132;-87
2021/12/07 02:43:39;;;;;;;11.32;1.10;;;5.00;99.90;;;;;;5053486;28;20401;-90
2021/12/07 02:46:05;;;;;;;13.57;1.50;;;5.10;99.90;;;;;;5058900;28;20036;-89
2021/12/07 02:48:32;;;;;;;8.57;0.93;;;5.10;99.90;;;;;;5077678;28;20028;-87
2021/12/07 02:50:57;;;;;;;2.60;0.90;;;5.10;99.90;;;;;;5059899;28;20111;-88
2021/12/07 02:53:26;;;;;;;3.72;1.05;;;5.20;99.90;;;;;;5059712;28;20421;-87
2021/12/07 02:55:54;;;;;;;5.75;0.70;;;5.20;99.90;;;;;;5057607;28;20499;-88
2021/12/07 02:58:20;;;;;;;8.05;1.60;;;5.20;99.90;;;;;;5055723;28;20072;-88
2021/12/07 03:00:56;;;;;;;4.22;1.83;;;5.20;99.90;;;;;;5056473;28;20044;-86
2021/12/07 03:03:22;;;;;;;6.03;0.60;;;5.20;99.90;;;;;;5054784;28;20087;-86
2021/12/07 03:27:53;;;;;;;6.07;0.93;;;5.00;99.90;;;;;;5064544;28;20086;-87
2021/12/07 03:30:19;;;;;;;0.85;0.60;;;5.10;99.90;;;;;;5056942;28;20094;-87
2021/12/07 03:32:45;;;;;;;6.70;1.05;;;5.00;99.90;;;;;;5058002;28;20040;-88
2021/12/07 03:35:10;;;;;;;1.83;0.93;;;4.90;99.90;;;;;;5057560;28;20020;-87
2021/12/07 03:37:36;;;;;;;9.55;1.08;;;5.00;99.90;;;;;;5058239;28;20043;-89
2021/12/07 03:40:03;;;;;;;9.65;1.35;;;5.00;99.90;;;;;;5057543;28;20112;-88
2021/12/07 03:42:28;;;;;;;5.10;1.23;;;5.00;99.90;;;;;;5076978;28;20025;-88
2021/12/07 03:44:54;;;;;;;12.05;1.20;;;5.00;99.90;;;;;;5061058;28;20025;-86
2021/12/07 03:47:19;;;;;;;5.95;0.93;;;5.00;99.90;;;;;;5041372;28;20118;-89
2021/12/07 03:49:45;;;;;;;5.65;1.08;;;5.10;99.90;;;;;;5058736;28;20036;-89
2021/12/07 03:52:11;;;;;;;8.98;1.40;;;5.00;99.90;;;;;;5077295;28;20033;-88
2021/12/07 03:54:36;;;;;;;6.95;1.27;;;5.00;99.90;;;;;;5058356;28;20045;-88
2021/12/07 03:57:03;;;;;;;4.60;0.57;;;5.00;99.90;;;;;;5074972;28;20029;-89
2021/12/07 03:59:29;;;;;;;5.10;0.80;;;5.00;99.90;;;;;;5065403;28;20057;-89
2021/12/07 04:01:55;;;;;;;7.53;1.13;;;4.90;99.90;;;;;;5054521;28;20439;-89
2021/12/07 04:04:21;;;;;;;4.90;1.08;;;4.80;99.90;;;;;;5054293;28;20056;-87
2021/12/07 04:06:47;;;;;;;11.35;1.70;;;4.80;99.90;;;;;;5055011;28;20378;-88
2021/12/07 04:09:12;;;;;;;5.40;1.38;;;4.80;99.90;;;;;;5057424;28;20056;-86
2021/12/07 04:11:38;;;;;;;3.78;1.00;;;4.70;99.90;;;;;;5076305;28;20032;-89
2021/12/07 04:14:04;;;;;;;4.32;0.55;;;4.70;99.90;;;;;;5076002;28;20032;-88
2021/12/07 04:16:29;;;;;;;7.22;1.13;;;4.60;99.90;;;;;;5076208;28;20031;-88
2021/12/07 04:18:55;;;;;;;3.33;0.93;;;4.60;99.90;;;;;;5057810;28;20020;-87
2021/12/07 04:21:21;;;;;;;3.95;1.30;;;4.60;99.90;;;;;;5057929;28;20020;-89
2021/12/07 04:23:46;;;;;;;2.53;0.93;;;4.50;99.90;;;;;;5057535;28;20032;-88
2021/12/07 04:26:14;;;;;;;5.85;1.63;;;4.50;99.90;;;;;;5074654;28;20110;-88
2021/12/07 04:28:41;;;;;;;6.53;1.42;;;4.40;99.90;;;;;;5053088;28;20447;-85
2021/12/07 04:31:07;;;;;;;8.55;1.40;;;4.40;99.90;;;;;;5063882;28;20024;-87
2021/12/07 04:33:34;;;;;;;12.18;1.40;;;4.30;99.90;;;;;;5057279;28;20025;-87
2021/12/07 04:36:00;;;;;;;3.20;1.33;;;4.30;99.90;;;;;;5056949;28;20020;-88
2021/12/07 04:38:26;;;;;;;14.70;1.75;;;4.30;99.90;;;;;;5073664;28;20028;-88
2021/12/07 04:40:52;;;;;;;10.70;1.67;;;4.30;99.90;;;;;;5056776;28;20031;-87
2021/12/07 04:43:18;;;;;;;6.72;2.08;;;4.30;99.90;;;;;;5075495;28;20028;-86
2021/12/07 04:58:58;;;;;;;6.20;1.92;;;4.10;99.90;;;;;;5078961;28;20065;-87
2021/12/07 05:01:25;;;;;;;6.82;1.73;;;4.00;99.90;;;;;;5078925;28;20522;-89
2021/12/07 05:03:54;;;;;;;6.43;1.23;;;4.00;99.90;;;;;;5060717;28;20025;-87
2021/12/07 05:06:23;;;;;;;14.63;1.40;;;4.00;99.90;;;;;;5061621;28;20058;-88
2021/12/07 05:08:56;;;;;;;10.93;1.73;;;4.00;99.90;;;;;;5063555;28;20500;-88
2021/12/07 05:13:57;;;;;;;23.40;3.08;;;4.00;99.90;;;;;;5081998;28;20457;-89
2021/12/07 05:23:55;;;;;;;11.13;1.38;;;3.90;99.90;;;;;;5081756;28;20067;-89
2021/12/07 05:38:32;;;;;;;7.55;1.33;;;3.80;99.90;;;;;;5072289;28;20125;-91
2021/12/07 05:40:58;;;;;;;4.60;1.30;;;3.70;99.90;;;;;;5057963;28;20025;-89
2021/12/07 05:43:24;;;;;;;12.27;2.17;;;3.80;99.90;;;;;;5092769;28;20024;-89
2021/12/07 05:45:50;;;;;;;6.82;1.48;;;3.70;99.90;;;;;;5079328;28;20024;-86
2021/12/07 05:48:15;;;;;;;10.35;1.48;;;3.60;99.90;;;;;;5080386;28;20041;-88
2021/12/07 05:50:42;;;;;;;6.72;1.45;;;3.60;99.90;;;;;;5081911;28;20033;-89
2021/12/07 05:53:09;;;;;;;6.60;1.58;;;3.60;99.90;;;;;;5100550;28;20028;-84
2021/12/07 05:55:35;;;;;;;17.75;2.22;;;3.70;99.90;;;;;;5100630;28;20028;-83
2021/12/07 05:58:01;;;;;;;8.68;1.60;;;3.70;99.90;;;;;;5099420;28;20067;-88
2021/12/07 06:00:30;;;;;;;8.05;1.42;;;3.70;99.90;;;;;;5080761;28;20048;-86
2021/12/07 06:02:59;;;;;;;2.63;1.42;;;3.70;99.90;;;;;;5078826;28;20037;-87
2021/12/07 06:05:27;;;;;;;4.35;1.20;;;3.70;99.90;;;;;;5099863;28;20035;-86
2021/12/07 06:07:53;;;;;;;15.55;1.83;;;3.70;99.90;;;;;;5083216;28;20040;-85
2021/12/07 06:10:21;;;;;;;10.13;1.50;;;3.70;99.90;;;;;;5100360;28;20016;-85
2021/12/07 06:12:46;;;;;;;3.27;1.50;;;3.70;99.90;;;;;;5100657;28;20067;-86
2021/12/07 06:15:14;;;;;;;11.52;2.47;;;3.60;99.90;;;;;;5081808;28;20040;-88
2021/12/07 06:17:40;;;;;;;9.77;1.45;;;3.60;99.90;;;;;;5078686;28;20090;-85
2021/12/07 06:20:06;;;;;;;8.80;1.58;;;3.60;99.90;;;;;;5094307;28;20052;-82
2021/12/07 06:22:33;;;;;;;4.88;1.55;;;3.50;99.90;;;;;;5077465;28;20369;-85
2021/12/07 06:24:58;;;;;;;10.27;1.50;;;3.50;99.90;;;;;;5084072;28;20105;-88
2021/12/07 06:27:24;;;;;;;2.33;1.27;;;3.40;99.90;;;;;;5066708;28;20033;-91
2021/12/07 06:29:50;;;;;;;7.53;1.85;;;3.40;99.90;;;;;;5058570;28;20174;-90
2021/12/07 06:32:16;;;;;;;10.70;2.47;;;3.40;99.90;;;;;;5065118;28;20027;-87
2021/12/07 06:34:42;;;;;;;7.50;1.73;;;3.40;99.90;;;;;;5063506;28;20033;-88
2021/12/07 06:37:07;;;;;;;8.30;2.78;;;3.40;99.90;;;;;;5062506;28;20472;-87
2021/12/07 06:39:34;;;;;;;11.90;2.78;;;3.50;99.90;;;;;;5063899;28;20025;-89
2021/12/07 06:42:00;;;;;;;10.68;2.72;;;3.40;99.90;;;;;;5079895;28;20021;-88
2021/12/07 06:44:26;;;;;;;4.47;2.00;;;3.40;99.90;;;;;;5078996;28;20049;-88
2021/12/07 06:46:52;;;;;;;8.85;1.88;;;3.40;99.90;;;;;;5067410;28;20078;-88
2021/12/07 06:49:19;;;;;;;8.82;2.65;;;3.40;99.90;;;;;;5078383;28;20081;-88
2021/12/07 06:51:46;;;;;;;12.23;2.10;;;3.40;99.90;;;;;;5060237;28;20485;-87
2021/12/07 06:54:12;;;;;;;9.23;2.15;;;3.40;99.90;;;;;;5056886;28;20055;-89
2021/12/07 06:56:38;;;;;;;10.27;2.85;;;3.40;99.90;;;;;;5057578;28;20029;-87
2021/12/07 06:59:05;;;;;;;6.78;2.35;;;3.40;99.90;;;;;;5041060;28;20049;-88
2021/12/07 07:01:31;;;;;;;11.25;2.33;;;3.30;99.90;;;;;;5041506;28;20108;-89
2021/12/07 07:03:57;;;;;;;9.88;2.22;;;3.30;99.90;;;;;;5055004;28;20094;-87
2021/12/07 07:06:22;;;;;;;10.77;2.70;;;3.30;99.90;;;;;;5059287;28;20025;-88
2021/12/07 07:08:50;;;;;;;12.73;1.80;;;3.30;99.90;;;;;;5057962;28;20431;-88
2021/12/07 07:11:20;;;;;;;5.47;1.60;;;3.30;99.90;;;;;;5065747;28;20081;-86
2021/12/07 07:13:46;;;;;;;8.43;1.60;;;3.20;99.90;;;;;;5055928;28;20032;-87
2021/12/07 07:16:13;;;;;;;15.25;1.52;;;3.30;99.90;;;;;;5078016;28;20028;-87
2021/12/07 07:18:39;;;;;;;10.70;1.75;;;3.30;99.90;;;;;;5058990;28;20098;-88
2021/12/07 07:21:08;;;;;;;4.22;1.58;;;3.30;99.90;;;;;;5076887;28;20111;-87
2021/12/07 07:23:34;;;;;;;6.82;2.35;;;3.30;99.90;;;;;;5059392;28;20037;-88
2021/12/07 07:26:00;;;;;;;9.43;1.83;;;3.30;99.90;;;;;;5078223;28;20020;-87
2021/12/07 07:28:27;;;;;;;10.10;2.25;;;3.40;99.90;;;;;;5058894;28;20048;-87
2021/12/07 07:30:53;;;;;;;6.35;1.48;;;3.30;99.90;;;;;;5058489;28;20029;-88
2021/12/07 07:33:20;;;;;;;4.90;1.55;;;3.30;99.90;;;;;;5077067;28;20025;-87
2021/12/07 07:35:46;;;;;;;13.07;2.40;;;3.40;99.90;;;;;;5077070;28;20025;-85
2021/12/07 07:38:12;;;;;;;4.95;1.45;;;3.40;99.90;;;;;;5077670;28;20025;-88
2021/12/07 07:40:39;;;;;;;7.60;2.28;;;3.40;99.90;;;;;;5059885;28;20066;-87
2021/12/07 07:43:05;;;;;;;6.75;1.70;;;3.40;99.90;;;;;;5057442;28;20469;-86
2021/12/07 07:45:31;;;;;;;9.32;1.52;;;3.40;99.90;;;;;;5057103;28;20071;-88
2021/12/07 07:47:56;;;;;;;5.93;1.52;;;3.40;99.90;;;;;;5058850;28;20104;-89
2021/12/07 07:50:23;;;;;;;3.33;1.55;;;3.40;99.90;;;;;;5059292;28;20602;-89
2021/12/07 07:52:49;;;;;;;10.25;2.15;;;3.40;99.90;;;;;;5078782;28;20054;-88
2021/12/07 07:55:14;;;;;;;10.70;3.25;;;3.50;99.90;;;;;;5059670;28;20036;-88
2021/12/07 07:57:41;;;;;;;6.32;2.50;;;3.50;99.90;;;;;;5066804;28;20024;-88
2021/12/07 08:00:10;;;;;;;6.88;1.58;;;3.50;99.90;;;;;;5056216;28;20079;-87
2021/12/07 08:02:36;;;;;;;12.02;2.03;;;3.60;99.90;;;;;;5079243;28;20024;-89
2021/12/07 08:05:02;;;;;;;10.38;1.70;;;3.60;99.90;;;;;;5077324;28;20150;-88
2021/12/07 08:07:28;;;;;;;6.07;1.30;;;3.70;99.90;;;;;;5059327;28;20029;-87
2021/12/07 08:09:54;;;;;;;12.05;2.08;;;3.80;99.90;;;;;;5077240;28;20083;-90
2021/12/07 08:12:20;;;;;;;2.85;1.88;;;3.80;99.90;;;;;;5077576;28;20056;-90
2021/12/07 08:14:45;;;;;;;13.63;1.98;;;3.90;99.90;;;;;;5060443;28;20028;-90
2021/12/07 08:17:11;;;;;;;18.10;3.55;;;4.00;99.90;;;;;;5070183;28;20040;-90
2021/12/07 08:19:37;;;;;;;10.68;3.35;;;4.10;99.90;;;;;;5077788;28;20024;-90
2021/12/07 08:22:04;;;;;;;5.88;1.83;;;4.20;99.90;;;;;;5060199;28;20016;-90
2021/12/07 08:24:29;;;;;;;3.78;1.52;;;4.30;99.90;;;;;;5060263;28;20016;-89
2021/12/07 08:26:55;;;;;;;5.80;2.63;;;4.30;99.90;;;;;;5059631;28;20477;-89
2021/12/07 08:29:21;;;;;;;19.52;3.83;;;4.40;99.90;;;;;;5064121;28;20025;-89
2021/12/07 08:31:46;;;;;;;17.55;2.25;;;4.50;99.90;;;;;;5065879;28;20028;-86
2021/12/07 08:34:12;;;;;;;8.45;2.30;;;4.50;99.90;;;;;;5063329;28;20057;-88
2021/12/07 08:36:38;;;;;;;12.60;2.00;;;4.60;99.90;;;;;;5059757;28;20042;-87
2021/12/07 08:39:06;;;;;;;7.43;2.13;;;4.60;99.90;;;;;;5063391;28;20029;-90
2021/12/07 08:41:32;;;;;;;12.30;1.98;;;4.60;99.90;;;;;;5061032;28;20124;-90
2021/12/07 08:43:57;;;;;;;17.60;2.58;;;4.70;99.90;;;;;;5063084;28;20052;-90
2021/12/07 08:46:23;;;;;;;11.43;1.85;;;4.60;99.90;;;;;;5063983;28;20433;-89
2021/12/07 08:48:49;;;;;;;12.85;2.40;;;4.60;99.90;;;;;;5063399;28;20088;-87
2021/12/07 08:51:17;;;;;;;13.18;2.10;;;4.50;99.90;;;;;;5068761;28;20013;-90
2021/12/07 08:53:53;;;;;;;10.95;2.58;;;4.60;99.90;;;;;;5087657;28;20028;-91
2021/12/07 09:01:50;;;;;;;16.90;2.67;;;4.90;99.90;;;;;;5086589;28;20031;-90
2021/12/07 09:04:17;;;;;;;11.75;1.80;;;5.10;99.90;;;;;;5068633;28;20032;-89
2021/12/07 09:06:47;;;;;;;9.57;2.25;;;5.10;99.90;;;;;;5066990;28;20024;-85
2021/12/07 09:09:15;;;;;;;23.17;3.05;;;5.20;99.90;;;;;;5075576;28;20031;-91
2021/12/07 09:11:42;;;;;;;18.55;2.53;;;5.20;99.90;;;;;;5085094;28;20040;-92
2021/12/07 09:14:14;;;;;;;8.57;2.03;;;5.10;99.90;;;;;;5085007;28;20108;-90
2021/12/07 09:16:40;;;;;;;15.80;2.25;;;5.00;99.90;;;;;;5085566;28;20024;-87
2021/12/07 09:19:07;;;;;;;14.23;2.80;;;5.10;99.90;;;;;;5084124;28;20040;-85
2021/12/07 09:21:34;;;;;;;9.73;1.93;;;5.00;99.90;;;;;;5082016;28;20033;-88
2021/12/07 09:24:00;;;;;;;7.75;1.85;;;5.00;99.90;;;;;;5081061;28;20024;-86
2021/12/07 09:26:26;;;;;;;15.77;2.92;;;5.10;99.90;;;;;;5075433;28;20034;-86
2021/12/07 09:28:51;;;;;;;16.33;2.40;;;5.00;99.90;;;;;;5061129;28;20052;-80
2021/12/07 09:31:17;;;;;;;11.13;2.58;;;5.00;99.90;;;;;;5054530;28;20036;-78
2021/12/07 09:33:43;;;;;;;15.32;2.88;;;4.90;99.90;;;;;;5056510;28;20033;-79
2021/12/07 09:36:11;;;;;;;6.80;3.00;;;5.00;99.90;;;;;;5056765;28;20021;-78
2021/12/07 09:38:37;;;;;;;;;;;4.90;99.90;;;;;;5076030;28;20041;-78
2021/12/07 09:41:05;;;;;;;7.25;3.15;;;4.90;99.90;;;;;;5075488;28;20348;-81
2021/12/07 09:43:31;;;;;;;9.60;2.50;;;4.90;99.90;;;;;;5056521;28;20048;-82
2021/12/07 09:45:57;;;;;;;12.88;3.42;;;5.00;99.90;;;;;;5056859;28;20036;-80
2021/12/07 09:48:24;;;;;;;6.55;3.13;;;5.10;99.90;;;;;;5060125;28;20477;-81
2021/12/07 09:50:51;;;;;;;10.90;3.38;;;5.20;99.90;;;;;;5057709;28;20024;-82
2021/12/07 09:53:17;;;;;;;12.32;3.08;;;5.30;99.90;;;;;;5056713;28;20108;-82
2021/12/07 09:55:45;;;;;;;11.63;3.28;;;5.40;99.90;;;;;;5057525;28;20409;-80
2021/12/07 09:58:11;;;;;;;14.30;3.33;;;5.50;99.90;;;;;;5047889;28;20074;-81
2021/12/07 10:00:36;;;;;;;17.75;3.60;;;5.50;99.90;;;;;;5038358;28;20130;-81
2021/12/07 10:03:03;;;;;;;24.00;3.70;;;5.50;99.90;;;;;;5074340;28;20032;-81
2021/12/07 10:05:31;;;;;;;13.50;2.97;;;5.50;99.90;;;;;;5065054;28;20016;-81
2021/12/07 10:07:58;;;;;;;20.00;4.10;;;5.60;99.90;;;;;;5075927;28;20024;-82
2021/12/07 10:10:32;;;;;;;12.82;3.60;;;5.60;99.90;;;;;;5076156;28;20029;-80
2021/12/07 10:12:58;;;;;;;16.45;3.60;;;5.70;99.90;;;;;;5075029;28;20032;-80
2021/12/07 10:15:24;;;;;;;13.05;4.03;;;5.60;99.90;;;;;;5074834;28;20033;-82
2021/12/07 10:18:12;;;;;;;18.90;4.95;;;5.60;99.90;;;;;;5051238;28;20075;-81
2021/12/07 10:20:42;;;;;;;13.95;4.20;;;5.70;99.90;;;;;;5055005;28;20039;-82
2021/12/07 10:23:15;;;;;;;20.05;4.75;;;5.70;99.90;;;;;;5067726;28;20050;-81
2021/12/07 10:25:46;;;;;;;16.33;3.55;;;5.80;99.90;;;;;;5055052;28;20036;-80
2021/12/07 10:28:31;;;;;;;14.40;3.55;;;5.90;99.90;;;;;;5056395;28;20455;-80
2021/12/07 10:31:21;;;;;;;7.97;4.05;;;6.00;99.90;;;;;;5057368;28;20119;-80
2021/12/07 10:34:00;;;;;;;17.98;4.00;;;6.00;99.90;;;;;;5075754;28;20493;-81
2021/12/07 10:36:31;;;;;;;22.80;5.22;;;6.00;99.90;;;;;;5057466;28;20415;-79
2021/12/07 10:39:15;;;;;;;26.70;5.60;;;6.00;99.90;;;;;;5057377;28;20059;-80
2021/12/07 10:41:47;;;;;;;15.07;5.10;;;6.10;99.90;;;;;;5057304;28;20024;-79
2021/12/07 10:44:16;;;;;;;20.98;4.25;;;6.10;99.90;;;;;;5075396;28;20499;-80
2021/12/07 10:46:52;;;;;;;9.43;3.33;;;6.20;99.90;;;;;;5071872;28;20120;-82
2021/12/07 10:49:22;;;;;;;27.60;4.82;;;6.20;99.90;;;;;;5072200;28;20060;-82
2021/12/07 10:52:16;;;;;;;14.55;4.30;;;6.20;99.90;;;;;;5055659;28;20040;-79
2021/12/07 10:55:03;;;;;;;18.10;4.13;;;6.20;99.90;;;;;;5032176;28;20037;-78
2021/12/07 10:57:38;;;;;;;16.77;4.13;;;6.20;99.90;;;;;;5071196;28;20116;-79
2021/12/07 11:00:22;;;;;;;11.77;4.07;;;6.20;99.90;;;;;;5065944;28;20171;-81
2021/12/07 11:03:12;;;;;;;19.95;5.15;;;6.30;99.90;;;;;;5069563;28;20054;-81
2021/12/07 11:05:50;;;;;;;17.15;4.28;;;6.40;99.90;;;;;;5040063;28;20558;-78
2021/12/07 11:08:19;;;;;;;18.65;3.67;;;6.50;99.90;;;;;;5069577;28;20509;-79
2021/12/07 11:10:48;;;;;;;11.35;3.85;;;6.60;99.90;;;;;;5070169;28;20041;-84
2021/12/07 11:13:26;;;;;;;25.48;4.05;;;6.60;99.90;;;;;;5053082;28;20033;-86
2021/12/07 11:15:55;;;;;;;21.80;3.80;;;6.50;99.90;;;;;;5053775;28;20041;-80
2021/12/07 11:18:34;;;;;;;11.63;3.42;;;6.60;99.90;;;;;;5074530;28;20032;-84
2021/12/07 11:21:14;;;;;;;22.80;4.90;;;6.70;99.90;;;;;;5072828;28;20036;-82
2021/12/07 11:23:51;;;;;;;15.05;3.80;;;6.70;99.90;;;;;;5055798;28;20028;-83
2021/12/07 11:31:41;;;;;;;25.20;3.58;;;6.80;99.90;;;;;;5074726;28;20510;-81
2021/12/07 11:34:15;;;;;;;12.15;3.55;;;6.80;99.90;;;;;;5073473;28;20025;-82
2021/12/07 11:36:46;;;;;;;26.17;4.53;;;6.80;99.90;;;;;;5055164;28;20520;-82
2021/12/07 11:39:26;;;;;;;15.88;4.30;;;6.80;99.90;;;;;;5053617;28;20439;-82
2021/12/07 11:42:13;;;;;;;13.38;3.45;;;6.80;99.90;;;;;;5070999;28;20107;-81
2021/12/07 11:44:52;;;;;;;13.80;3.47;;;6.80;99.90;;;;;;5066021;28;20378;-81
2021/12/07 11:47:30;;;;;;;17.92;3.50;;;6.90;99.90;;;;;;5055233;28;20032;-80
2021/12/07 11:49:58;;;;;;;15.57;3.65;;;6.80;99.90;;;;;;5071826;28;20030;-80
2021/12/07 11:52:24;;;;;;;;;;;6.80;99.90;;;;;;5055410;28;20035;-80
2021/12/07 11:54:49;;;;;;;17.15;3.05;;;6.70;99.90;;;;;;5048839;28;19908;-83
2021/12/07 11:57:17;;;;;;;15.98;3.78;;;6.70;99.90;;;;;;5042994;28;20033;-82
2021/12/07 11:59:45;;;;;;;13.48;3.30;;;6.70;99.90;;;;;;5070957;28;20032;-83
2021/12/07 12:02:12;;;;;;;13.80;2.72;;;6.70;99.90;;;;;;5073302;28;20025;-82
2021/12/07 12:04:39;;;;;;;11.02;3.25;;;6.70;99.90;;;;;;5055013;28;20115;-83
2021/12/07 12:07:08;;;;;;;18.98;3.78;;;6.60;99.90;;;;;;5043970;28;20131;-81
2021/12/07 12:09:35;;;;;;;10.23;2.67;;;6.60;99.90;;;;;;5073123;28;20040;-83
2021/12/07 12:12:39;;;;;;;11.40;3.10;;;6.70;99.90;;;;;;5048730;28;20761;-82
2021/12/07 12:15:31;;;;;;;16.33;2.83;;;6.70;99.90;;;;;;5035736;28;20111;-81
2021/12/07 12:18:02;;;;;;;11.32;3.30;;;6.80;99.90;;;;;;5061464;28;20087;-83
2021/12/07 12:20:33;;;;;;;13.15;2.78;;;6.80;99.90;;;;;;5063906;28;20477;-84
2021/12/07 12:23:23;;;;;;;10.65;2.22;;;6.90;99.90;;;;;;5069166;28;20029;-81
2021/12/07 12:25:57;;;;;;;15.02;2.92;;;6.90;99.90;;;;;;5048194;28;20512;-80
2021/12/07 12:28:37;;;;;;;10.05;2.45;;;6.90;99.90;;;;;;5051774;28;20021;-80
2021/12/07 12:31:05;;;;;;;7.65;2.60;;;6.90;99.90;;;;;;5051287;28;20024;-81
2021/12/07 12:33:49;;;;;;;9.38;2.05;;;6.90;99.90;;;;;;5074583;28;20428;-83
2021/12/07 12:36:16;;;;;;;4.78;2.65;;;6.90;99.90;;;;;;5054009;28;20063;-83
2021/12/07 12:38:55;;;;;;;22.25;3.13;;;6.90;99.90;;;;;;5044885;28;20041;-82
2021/12/07 12:41:22;;;;;;;10.75;2.95;;;6.90;99.90;;;;;;5050451;28;20017;-84
2021/12/07 12:43:53;;;;;;;9.38;2.65;;;6.80;99.90;;;;;;5071308;28;20111;-81
2021/12/07 12:46:26;;;;;;;5.50;1.77;;;6.80;99.90;;;;;;5071252;28;20029;-81
2021/12/07 12:48:55;;;;;;;6.35;2.40;;;6.70;99.90;;;;;;5071639;28;20079;-81
2021/12/07 12:51:22;;;;;;;14.35;2.78;;;6.70;99.90;;;;;;5070050;28;20056;-80
2021/12/07 12:53:51;;;;;;;9.90;2.75;;;6.70;99.90;;;;;;5049987;28;20024;-81
2021/12/07 12:56:30;;;;;;;11.48;2.33;;;6.60;99.90;;;;;;5052219;28;20043;-82
2021/12/07 12:59:00;;;;;;;2.25;1.92;;;6.60;99.90;;;;;;5067753;28;20090;-78
2021/12/07 13:01:32;;;;;;;11.35;2.85;;;6.50;99.90;;;;;;5069626;28;20082;-79
2021/12/07 13:04:02;;;;;;;5.45;2.20;;;6.50;99.90;;;;;;5065186;28;20024;-81
2021/12/07 13:06:34;;;;;;;5.68;1.90;;;6.50;99.90;;;;;;5068111;28;20032;-80
2021/12/07 13:09:05;;;;;;;10.07;3.10;;;6.50;99.90;;;;;;5070142;28;20050;-80
2021/12/07 13:11:34;;;;;;;11.90;2.63;;;6.50;99.90;;;;;;5052797;28;20036;-80
2021/12/07 13:14:01;;;;;;;11.65;3.83;;;6.50;99.90;;;;;;5075727;28;20044;-80
2021/12/07 13:16:28;;;;;;;9.48;2.70;;;6.50;99.90;;;;;;5063935;28;20067;-82
2021/12/07 13:19:05;;;;;;;16.83;2.58;;;6.50;99.90;;;;;;5058887;28;20024;-81
2021/12/07 13:21:37;;;;;;;10.95;2.22;;;6.60;99.90;;;;;;5068903;28;20016;-84
2021/12/07 13:24:07;;;;;;;7.90;2.40;;;6.60;99.90;;;;;;5067532;28;20103;-77
2021/12/07 13:26:38;;;;;;;5.60;2.10;;;6.60;99.90;;;;;;5049306;28;20125;-81
2021/12/07 13:29:09;;;;;;;9.73;3.72;;;6.50;99.90;;;;;;5062721;28;20393;-81
2021/12/07 13:31:42;;;;;;;6.05;2.55;;;6.50;99.90;;;;;;5054771;28;20426;-77
2021/12/07 13:34:08;;;;;;;5.75;2.85;;;6.50;99.90;;;;;;5043683;28;20401;-79
2021/12/07 13:36:52;;;;;;;9.90;2.60;;;6.60;99.90;;;;;;5069131;28;20035;-78
2021/12/07 13:39:21;;;;;;;15.43;2.63;;;6.50;99.90;;;;;;5049605;28;20037;-82
2021/12/07 13:42:05;;;;;;;6.68;2.90;;;6.50;99.90;;;;;;5073839;28;20048;-86
2021/12/07 13:44:35;;;;;;;14.75;2.88;;;6.50;99.90;;;;;;5075177;28;20051;-79
2021/12/07 13:47:05;;;;;;;11.40;2.22;;;6.50;99.90;;;;;;5057762;28;20086;-79
2021/12/07 13:49:34;;;;;;;11.30;2.80;;;6.50;99.90;;;;;;5053516;28;20040;-79
2021/12/07 13:52:00;;;;;;;12.43;3.47;;;6.50;99.90;;;;;;5072411;28;20504;-80
2021/12/07 13:54:26;;;;;;;7.40;2.20;;;6.50;99.90;;;;;;5070367;28;20166;-80
2021/12/07 13:56:53;;;;;;;5.03;2.80;;;6.50;99.90;;;;;;5038825;28;20112;-80
2021/12/07 13:59:26;;;;;;;9.57;1.98;;;6.50;99.90;;;;;;5063011;28;20119;-82
2021/12/07 14:01:55;;;;;;;13.32;2.60;;;6.30;99.90;;;;;;5071970;28;20016;-80
2021/12/07 14:04:28;;;;;;;20.95;2.95;;;6.40;99.90;;;;;;5072131;28;21217;-81
2021/12/07 14:06:55;;;;;;;7.80;2.83;;;6.30;99.90;;;;;;5072610;28;20024;-81
2021/12/07 14:09:22;;;;;;;13.20;2.38;;;6.20;99.90;;;;;;5055824;28;20397;-80
2021/12/07 14:11:59;;;;;;;16.23;2.28;;;6.20;99.90;;;;;;5068376;28;20037;-79
2021/12/07 14:14:26;;;;;;;16.10;2.95;;;6.10;99.90;;;;;;5057147;28;20039;-79
2021/12/07 14:16:58;;;;;;;7.20;2.22;;;6.10;99.90;;;;;;5058166;28;20115;-79
2021/12/07 14:19:24;;;;;;;9.73;2.35;;;6.00;99.90;;;;;;5076418;28;20027;-80
2021/12/07 14:21:51;;;;;;;9.55;2.05;;;6.00;99.90;;;;;;5057516;28;20037;-78
2021/12/07 14:24:19;;;;;;;14.83;3.50;;;6.10;99.90;;;;;;5075760;28;20539;-79
2021/12/07 14:26:45;;;;;;;;;;;6.10;99.90;;;;;;5057424;28;20043;-81
2021/12/07 14:29:22;;;;;;;5.05;2.20;;;6.10;99.90;;;;;;5058303;28;19909;-80
2021/12/07 14:31:57;;;;;;;6.82;1.77;;;6.10;99.90;;;;;;5058131;28;20450;-80
2021/12/07 14:34:30;;;;;;;13.57;4.10;;;6.00;99.90;;;;;;5054734;28;20462;-80
2021/12/07 14:37:05;;;;;;;14.27;3.00;;;5.90;99.90;;;;;;5047545;28;20116;-82
2021/12/07 14:39:32;;;;;;;16.42;2.95;;;5.90;99.90;;;;;;5056851;28;20059;-81
2021/12/07 14:42:04;;;;;;;16.70;3.20;;;5.80;99.90;;;;;;5057735;28;20538;-81
2021/12/07 14:44:37;;;;;;;10.43;3.15;;;5.80;99.90;;;;;;5058102;28;20029;-84
2021/12/07 14:47:06;;;;;;;8.23;2.83;;;5.80;99.90;;;;;;5057051;28;20552;-83